• Join FlightAware (Why Join?)
  • Login
  • US Flag 
10:52AM EDT


 

Airport Tracker/Info


-or-


 

Live Flight TrackerFlight Track Log ✈ AAL1684 ✈ 08-May-2013 ✈ MKJS / MBJ - KMIA

Flight Track Log - Related Links

Times and Time Zones

All times are in EDT time to prevent confusion due to time zone crossing. See the AAL1684 flight status page for this flight to view local times or setup timezone preferences in your user account.

Time Position Orientation Groundspeed Altitude Reporting Facility
EDT Latitude Longitude Course Direction KTS MPH feet Rate Location/Type
08:23AM 18.8314 -77.9786 349° North  Level FlightAware Approximate
08:24AM 18.9406 -78.0004 349° North  Level FlightAware Approximate
08:25AM 19.0498 -78.0223 349° North  Level FlightAware Approximate
08:26AM 19.1591 -78.0441 349° North  Level FlightAware Approximate
08:27AM 19.2683 -78.0660 349° North  Level FlightAware Approximate
08:28AM 19.3775 -78.0879 349° North  Level FlightAware Approximate
08:29AM 19.4867 -78.1099 349° North  Level FlightAware Approximate
08:30AM 19.5959 -78.1319 349° North  Level FlightAware Approximate
08:31AM 19.7051 -78.1539 349° North  Level FlightAware Approximate
08:32AM 19.8143 -78.1759 349° North  Level FlightAware Approximate
08:33AM 19.9235 -78.1980 349° North  Level FlightAware Approximate
08:34AM 20.0267 -78.2194 349° North  Level FlightAware Approximate
08:35AM 20.1358 -78.2420 349° North  Level FlightAware Approximate
08:36AM 20.2449 -78.2647 349° North  Level FlightAware Approximate
08:37AM 20.3569 -78.2880 349° North  Level FlightAware Approximate
08:38AM 20.4689 -78.3113 349° North  Level FlightAware Approximate
08:39AM 20.5809 -78.3347 349° North  Level FlightAware Approximate
08:40AM 20.6929 -78.3581 349° North  Level FlightAware Approximate
08:41AM 20.8049 -78.3816 349° North  Level FlightAware Approximate
08:42AM 20.9169 -78.4051 349° North  Level FlightAware Approximate
08:43AM 21.0289 -78.4286 349° North  Level FlightAware Approximate
08:44AM 21.1408 -78.4521 349° North  Level FlightAware Approximate
08:45AM 21.2528 -78.4757 349° North  Level FlightAware Approximate
08:46AM 21.3648 -78.4994 349° North  Level FlightAware Approximate
08:47AM 21.4768 -78.5230 349° North  Level FlightAware Approximate
08:48AM 21.5887 -78.5467 349° North  Level FlightAware Approximate
08:49AM 21.7007 -78.5705 349° North  Level FlightAware Approximate
08:50AM 21.8127 -78.5942 349° North  Level FlightAware Approximate
08:51AM 21.9246 -78.6180 349° North  Level FlightAware Approximate
08:52AM 22.0366 -78.6419 349° North  Level FlightAware Approximate
08:53AM 22.1516 -78.6664 349° North  Level FlightAware Approximate
08:54AM 22.2666 -78.6910 349° North  Level FlightAware Approximate
08:55AM 22.3816 -78.7156 349° North  Level FlightAware Approximate
08:56AM 22.4967 -78.7403 349° North  Level FlightAware Approximate
08:57AM 22.6117 -78.7650 349° North  Level FlightAware Approximate
08:58AM 22.7267 -78.7898 349° North  Level FlightAware Approximate
08:59AM 22.8417 -78.8146 349° North  Level FlightAware Approximate
08:59AM 23.1639 -78.8814 349° North 412 474 30,000  Level Miami Center
09:00AM 22.9453 -78.8369 349° North  Level FlightAware Approximate
09:00AM 23.2931 -78.9128 347° North 448 516 30,000  Level Miami Center
09:01AM 23.0489 -78.8593 349° North  Level FlightAware Approximate
09:01AM 23.4181 -78.9375 350° North 462 532 30,000  Level Miami Center
09:02AM 23.1525 -78.8818 349° North  Level FlightAware Approximate
09:02AM 23.5472 -78.9714 346° North 467 537 30,000  Level Miami Center
09:03AM 23.2562 -78.9043 349° North  Level FlightAware Approximate
09:03AM 23.6783 -78.9983 349° North 472 543 30,000  Level Miami Center
09:04AM 23.3598 -78.9268 349° North  Level FlightAware Approximate
09:04AM 23.8097 -79.0278 348° North 465 535 30,000  Level Miami Center
09:05AM 23.4634 -78.9493 349° North  Level FlightAware Approximate
09:05AM 23.9325 -79.0550 349° North 470 541 30,000  Level Miami Center
09:06AM 24.0633 -79.1050 341° North 464 534 30,000  Level Miami Center
09:07AM 24.1797 -79.1594 337° Northwest 464 534 30,000  Level Miami Center
09:08AM 24.2772 -79.2022 338° Northwest 451 519 30,000 -180 Level Miami Center
09:09AM 24.4183 -79.2597 340° North 451 519 29,700 -720 Descending Miami Center
09:10AM 24.5303 -79.3167 335° Northwest 451 519 28,600 -1,080 Descending Miami Center
09:11AM 24.6400 -79.3692 336° Northwest 444 511 27,600 -1,380 Descending Miami Center
09:12AM 24.7500 -79.4217 337° Northwest 433 498 25,900 -2,040 Descending Miami Center
09:13AM 24.8597 -79.4744 336° Northwest 433 498 23,600 -2,280 Descending Miami Center
09:14AM 24.9633 -79.5247 336° Northwest 421 484 21,400 -2,220 Descending Miami Center
09:15AM 25.0628 -79.5728 336° Northwest 400 460 19,200 -2,100 Descending Miami Center
09:16AM 25.1600 -79.6183 337° Northwest 384 442 17,300 -2,100 Descending Miami Center
09:17AM 25.2264 -79.6522 335° Northwest 363 418 15,500 -2,280 Descending Miami Center
09:18AM 25.2803 -79.6786 336° Northwest 359 413 14,300 -2,220 Descending Miami Center
09:18AM 25.3403 -79.7031 340° North 361 415 12,900 -2,040 Descending Miami Center
09:19AM 25.3608 -79.7172 328° Northwest 352 405 12,400 -1,020 Descending Miami Center
09:19AM 25.4122 -79.7644 320° Northwest 327 376 11,900 -420 Descending Miami Center
09:20AM 25.4264 -79.7856 307° West 317 365 12,000  Climbing Miami Center
09:20AM 25.4692 -79.8417 310° West 321 369 11,900  Descending Miami Center
09:21AM 25.4853 -79.8767 297° West 312 359 12,000  Climbing Miami Center
09:21AM 25.5178 -79.9167 312° West 314 361 11,900  Descending Miami Center
09:22AM 25.5339 -79.9469 301° West 309 356 12,000  Climbing Miami Center
09:22AM 25.5703 -79.9964 309° West 314 361 11,900 -540 Descending Miami Center
09:23AM 25.5822 -80.0267 294° West 317 365 11,500 -1,320 Descending Miami Center
09:23AM 25.6208 -80.0758 311° West 319 367 10,600 -1,080 Descending Miami Center
09:24AM 25.6389 -80.1108 300° West 279 321 10,300 -900 Descending Miami Center
09:24AM 25.6653 -80.1464 309° West 302 348 9,700 -1,320 Descending Miami Center
09:25AM 25.6667 -80.1739 273° West 265 305 9,100 -1,500 Descending Miami Center
09:25AM 25.6844 -80.2206 293° West 271 312 8,200 -1,260 Descending Miami Center
09:26AM 25.6897 -80.2644 278° West 255 293 7,700 -1,020 Descending Miami Center
09:26AM 25.7036 -80.2947 297° West 255 293 7,200 -1,500 Descending Miami Center
09:27AM 25.7069 -80.3364 275° West 228 262 6,200 -1,980 Descending Miami Center
09:28AM 25.7053 -80.4056 268° West 233 268 4,200 -1,560 Descending Miami Center
09:29AM 25.6994 -80.4700 264° West 220 253 3,200 -600 Descending Miami Center
09:30AM 25.7489 -80.4992 332° Northwest 208 239 3,000 -360 Descending Miami Center
09:31AM 25.7792 -80.4586 50° Northeast 188 216 2,500 -720 Descending Miami Center
09:32AM 25.7806 -80.4008 88° East 179 206 1,600 -900 Descending Miami Center